CMB855 Details

Departure: Guam International Airport (PGUM)
Arrival: Daniel K Inouye International Airport (PHNL)
Route: DEWSS A450 NATIE A450 BRIUN NONNI BOOKE BOOKE8
Notes: USTRANSCOM CONTRACT FLIGHT | PAYLOAD RESTRICTED | ETOPS


Current Weather Information
PGUM 251054Z 11003KT 10SM CLR 28/24 A2991 RMK AO2 SLP119 T02780239
PHNL 251053Z 08008KT 10SM FEW026 FEW060 26/19 A3006 RMK AO2 SLP180 T02610194 $